sensor_id;sensor_type;location;lat;lon;timestamp;pressure;altitude;pressure_sealevel;temperature;humidity
1371;BME280;14306;49.942;11.570;2022-07-29T00:01:16;97521.28;;;18.50;53.48
1371;BME280;14306;49.942;11.570;2022-07-29T00:03:45;97522.84;;;18.36;54.35
1371;BME280;14306;49.942;11.570;2022-07-29T00:06:14;97517.81;;;18.38;54.48
1371;BME280;14306;49.942;11.570;2022-07-29T00:08:42;97520.91;;;18.36;54.69
1371;BME280;14306;49.942;11.570;2022-07-29T00:11:11;97518.38;;;18.31;54.68
1371;BME280;14306;49.942;11.570;2022-07-29T00:13:40;97512.34;;;18.26;54.46
1371;BME280;14306;49.942;11.570;2022-07-29T00:16:14;97518.44;;;18.19;55.36
1371;BME280;14306;49.942;11.570;2022-07-29T00:18:43;97516.13;;;18.06;55.96
1371;BME280;14306;49.942;11.570;2022-07-29T00:21:11;97507.44;;;18.04;56.25
1371;BME280;14306;49.942;11.570;2022-07-29T00:23:39;97510.69;;;17.94;56.14
1371;BME280;14306;49.942;11.570;2022-07-29T00:26:07;97508.53;;;17.87;56.46
1371;BME280;14306;49.942;11.570;2022-07-29T00:28:37;97506.84;;;17.83;56.28
1371;BME280;14306;49.942;11.570;2022-07-29T00:31:05;97499.78;;;17.82;56.06
1371;BME280;14306;49.942;11.570;2022-07-29T00:33:34;97496.34;;;17.73;55.78
1371;BME280;14306;49.942;11.570;2022-07-29T00:36:03;97498.53;;;17.79;55.15
1371;BME280;14306;49.942;11.570;2022-07-29T00:38:30;97499.91;;;17.73;55.09
1371;BME280;14306;49.942;11.570;2022-07-29T00:40:58;97491.22;;;17.83;54.93
1371;BME280;14306;49.942;11.570;2022-07-29T00:43:26;97488.00;;;17.81;54.86
1371;BME280;14306;49.942;11.570;2022-07-29T00:45:56;97490.78;;;17.69;55.00
1371;BME280;14306;49.942;11.570;2022-07-29T00:48:24;97484.28;;;17.74;54.81
1371;BME280;14306;49.942;11.570;2022-07-29T00:50:52;97487.38;;;17.72;54.44
1371;BME280;14306;49.942;11.570;2022-07-29T00:53:21;97483.22;;;17.78;54.40
1371;BME280;14306;49.942;11.570;2022-07-29T00:55:49;97484.28;;;17.74;54.48
1371;BME280;14306;49.942;11.570;2022-07-29T00:58:18;97479.84;;;17.69;54.71
1371;BME280;14306;49.942;11.570;2022-07-29T01:00:46;97481.06;;;17.72;54.58
1371;BME280;14306;49.942;11.570;2022-07-29T01:03:16;97476.41;;;17.72;54.54
1371;BME280;14306;49.942;11.570;2022-07-29T01:05:45;97468.78;;;17.66;55.19
1371;BME280;14306;49.942;11.570;2022-07-29T01:08:18;97469.34;;;17.59;55.85
1371;BME280;14306;49.942;11.570;2022-07-29T01:10:46;97467.84;;;17.62;55.79
1371;BME280;14306;49.942;11.570;2022-07-29T01:13:16;97463.88;;;17.59;56.00
1371;BME280;14306;49.942;11.570;2022-07-29T01:15:48;97461.00;;;17.68;55.78
1371;BME280;14306;49.942;11.570;2022-07-29T01:18:23;97458.22;;;17.80;55.78
1371;BME280;14306;49.942;11.570;2022-07-29T01:21:09;97462.19;;;17.82;55.73
1371;BME280;14306;49.942;11.570;2022-07-29T01:23:56;97467.31;;;17.84;55.67
1371;BME280;14306;49.942;11.570;2022-07-29T01:26:41;97462.84;;;17.91;55.59
1371;BME280;14306;49.942;11.570;2022-07-29T01:29:21;97450.53;;;17.85;55.97
1371;BME280;14306;49.942;11.570;2022-07-29T01:31:58;97446.09;;;17.81;56.28
1371;BME280;14306;49.942;11.570;2022-07-29T01:34:32;97445.16;;;17.89;56.18
1371;BME280;14306;49.942;11.570;2022-07-29T01:37:08;97439.91;;;17.84;56.64
1371;BME280;14306;49.942;11.570;2022-07-29T01:39:39;97433.69;;;17.71;57.12
1371;BME280;14306;49.942;11.570;2022-07-29T01:42:13;97434.41;;;17.68;57.65
1371;BME280;14306;49.942;11.570;2022-07-29T01:44:49;97427.13;;;17.60;57.64
1371;BME280;14306;49.942;11.570;2022-07-29T01:47:21;97431.47;;;17.61;57.88
1371;BME280;14306;49.942;11.570;2022-07-29T01:49:54;97430.66;;;17.61;57.79
1371;BME280;14306;49.942;11.570;2022-07-29T01:52:29;97429.50;;;17.62;57.76
1371;BME280;14306;49.942;11.570;2022-07-29T01:55:02;97421.41;;;17.65;57.35
1371;BME280;14306;49.942;11.570;2022-07-29T01:57:33;97419.22;;;17.71;57.07
1371;BME280;14306;49.942;11.570;2022-07-29T02:00:06;97420.09;;;17.75;56.93
1371;BME280;14306;49.942;11.570;2022-07-29T02:02:35;97413.22;;;17.81;56.34
1371;BME280;14306;49.942;11.570;2022-07-29T02:05:08;97412.50;;;17.84;56.29
1371;BME280;14306;49.942;11.570;2022-07-29T02:07:40;97414.81;;;17.82;56.43
1371;BME280;14306;49.942;11.570;2022-07-29T02:10:10;97410.66;;;17.88;56.36
1371;BME280;14306;49.942;11.570;2022-07-29T02:12:42;97405.44;;;17.83;56.23
1371;BME280;14306;49.942;11.570;2022-07-29T02:15:18;97395.13;;;17.92;56.08
1371;BME280;14306;49.942;11.570;2022-07-29T02:17:51;97406.00;;;17.88;56.49
1371;BME280;14306;49.942;11.570;2022-07-29T02:20:22;97409.94;;;17.75;56.91
1371;BME280;14306;49.942;11.570;2022-07-29T02:22:51;97423.00;;;17.66;56.87
1371;BME280;14306;49.942;11.570;2022-07-29T02:25:21;97421.66;;;17.60;57.64
1371;BME280;14306;49.942;11.570;2022-07-29T02:27:50;97417.06;;;17.64;57.66
1371;BME280;14306;49.942;11.570;2022-07-29T02:30:22;97420.56;;;17.49;58.33
1371;BME280;14306;49.942;11.570;2022-07-29T02:32:51;97419.66;;;17.45;58.39
1371;BME280;14306;49.942;11.570;2022-07-29T02:35:21;97423.75;;;17.39;58.98
1371;BME280;14306;49.942;11.570;2022-07-29T02:37:50;97426.75;;;17.34;59.09
1371;BME280;14306;49.942;11.570;2022-07-29T02:40:35;97424.00;;;17.34;59.39
1371;BME280;14306;49.942;11.570;2022-07-29T02:43:06;97424.91;;;17.38;59.11
1371;BME280;14306;49.942;11.570;2022-07-29T02:45:39;97436.78;;;17.42;59.00
1371;BME280;14306;49.942;11.570;2022-07-29T02:48:10;97431.66;;;17.41;59.35
1371;BME280;14306;49.942;11.570;2022-07-29T02:50:44;97445.34;;;17.41;59.67
1371;BME280;14306;49.942;11.570;2022-07-29T02:53:18;97445.41;;;17.56;59.31
1371;BME280;14306;49.942;11.570;2022-07-29T02:55:52;97445.84;;;17.58;59.40
1371;BME280;14306;49.942;11.570;2022-07-29T02:58:25;97447.31;;;17.68;59.36
1371;BME280;14306;49.942;11.570;2022-07-29T03:00:58;97446.31;;;17.60;59.15
1371;BME280;14306;49.942;11.570;2022-07-29T03:03:31;97444.69;;;17.59;59.52
1371;BME280;14306;49.942;11.570;2022-07-29T03:06:01;97440.84;;;17.60;59.85
1371;BME280;14306;49.942;11.570;2022-07-29T03:08:31;97438.09;;;17.60;59.46
1371;BME280;14306;49.942;11.570;2022-07-29T03:11:00;97430.44;;;17.54;58.62
1371;BME280;14306;49.942;11.570;2022-07-29T03:13:29;97432.38;;;17.65;57.92
1371;BME280;14306;49.942;11.570;2022-07-29T03:16:00;97434.09;;;17.58;57.56
1371;BME280;14306;49.942;11.570;2022-07-29T03:18:30;97432.16;;;17.58;57.65
1371;BME280;14306;49.942;11.570;2022-07-29T03:20:59;97432.66;;;17.76;56.96
1371;BME280;14306;49.942;11.570;2022-07-29T03:23:27;97427.28;;;17.79;56.56
1371;BME280;14306;49.942;11.570;2022-07-29T03:26:02;97434.50;;;17.72;56.40
1371;BME280;14306;49.942;11.570;2022-07-29T03:28:30;97436.25;;;17.64;56.58
1371;BME280;14306;49.942;11.570;2022-07-29T03:31:01;97433.81;;;17.75;56.32
1371;BME280;14306;49.942;11.570;2022-07-29T03:33:31;97426.25;;;17.99;55.56
1371;BME280;14306;49.942;11.570;2022-07-29T03:35:59;97430.41;;;17.93;55.46
1371;BME280;14306;49.942;11.570;2022-07-29T03:38:30;97423.59;;;17.87;55.85
1371;BME280;14306;49.942;11.570;2022-07-29T03:41:04;97434.97;;;17.89;55.44
1371;BME280;14306;49.942;11.570;2022-07-29T03:43:36;97433.34;;;18.00;55.11
1371;BME280;14306;49.942;11.570;2022-07-29T03:46:17;97437.31;;;18.03;54.95
1371;BME280;14306;49.942;11.570;2022-07-29T03:48:50;97439.00;;;18.07;54.96
1371;BME280;14306;49.942;11.570;2022-07-29T03:51:21;97448.13;;;18.11;54.75
1371;BME280;14306;49.942;11.570;2022-07-29T03:54:00;97442.28;;;18.28;54.63
1371;BME280;14306;49.942;11.570;2022-07-29T03:56:39;97435.16;;;18.24;54.79
1371;BME280;14306;49.942;11.570;2022-07-29T03:59:08;97440.88;;;18.19;55.00
1371;BME280;14306;49.942;11.570;2022-07-29T04:01:40;97442.28;;;18.13;55.38
1371;BME280;14306;49.942;11.570;2022-07-29T04:04:09;97435.91;;;18.09;55.28
1371;BME280;14306;49.942;11.570;2022-07-29T04:06:39;97439.69;;;18.04;55.53
1371;BME280;14306;49.942;11.570;2022-07-29T04:09:07;97425.72;;;18.09;56.01
1371;BME280;14306;49.942;11.570;2022-07-29T04:11:36;97427.47;;;18.29;55.73
1371;BME280;14306;49.942;11.570;2022-07-29T04:14:25;97427.16;;;18.19;55.66
1371;BME280;14306;49.942;11.570;2022-07-29T04:16:55;97421.50;;;18.12;56.31
1371;BME280;14306;49.942;11.570;2022-07-29T04:19:23;97426.38;;;18.18;56.10
1371;BME280;14306;49.942;11.570;2022-07-29T04:21:52;97425.03;;;18.12;55.81
1371;BME280;14306;49.942;11.570;2022-07-29T04:24:20;97426.72;;;18.17;55.57
1371;BME280;14306;49.942;11.570;2022-07-29T04:26:48;97436.66;;;18.21;55.64
1371;BME280;14306;49.942;11.570;2022-07-29T04:29:16;97427.22;;;18.50;54.76
1371;BME280;14306;49.942;11.570;2022-07-29T04:31:44;97435.34;;;18.46;55.15
1371;BME280;14306;49.942;11.570;2022-07-29T04:34:14;97431.63;;;18.54;55.01
1371;BME280;14306;49.942;11.570;2022-07-29T04:36:43;97435.81;;;18.48;55.34
1371;BME280;14306;49.942;11.570;2022-07-29T04:39:16;97441.16;;;18.29;55.85
1371;BME280;14306;49.942;11.570;2022-07-29T04:41:49;97436.81;;;18.28;56.32
1371;BME280;14306;49.942;11.570;2022-07-29T04:44:20;97437.91;;;18.39;55.63
1371;BME280;14306;49.942;11.570;2022-07-29T04:46:55;97434.34;;;18.23;56.87
1371;BME280;14306;49.942;11.570;2022-07-29T04:49:24;97444.59;;;18.26;57.09
1371;BME280;14306;49.942;11.570;2022-07-29T04:51:53;97442.41;;;18.32;57.33
1371;BME280;14306;49.942;11.570;2022-07-29T04:54:21;97441.25;;;18.17;57.31
1371;BME280;14306;49.942;11.570;2022-07-29T04:56:50;97438.31;;;18.10;57.37
1371;BME280;14306;49.942;11.570;2022-07-29T04:59:18;97441.41;;;18.09;57.23
1371;BME280;14306;49.942;11.570;2022-07-29T05:01:46;97436.19;;;18.19;56.83
1371;BME280;14306;49.942;11.570;2022-07-29T05:04:14;97432.25;;;18.48;55.85
1371;BME280;14306;49.942;11.570;2022-07-29T05:06:45;97435.25;;;18.58;55.09
1371;BME280;14306;49.942;11.570;2022-07-29T05:09:13;97429.84;;;18.77;54.29
1371;BME280;14306;49.942;11.570;2022-07-29T05:11:41;97430.44;;;19.02;53.13
1371;BME280;14306;49.942;11.570;2022-07-29T05:14:09;97419.72;;;19.32;52.76
1371;BME280;14306;49.942;11.570;2022-07-29T05:16:38;97418.84;;;20.04;50.92
1371;BME280;14306;49.942;11.570;2022-07-29T05:19:07;97417.63;;;20.01;50.10
1371;BME280;14306;49.942;11.570;2022-07-29T05:21:40;97422.66;;;19.77;49.96
1371;BME280;14306;49.942;11.570;2022-07-29T05:24:10;97421.41;;;19.93;51.34
1371;BME280;14306;49.942;11.570;2022-07-29T05:26:39;97429.13;;;20.26;50.49
1371;BME280;14306;49.942;11.570;2022-07-29T05:29:08;97430.38;;;20.51;49.61
1371;BME280;14306;49.942;11.570;2022-07-29T05:32:00;97430.66;;;20.68;49.60
1371;BME280;14306;49.942;11.570;2022-07-29T05:34:33;97434.25;;;20.72;49.08
1371;BME280;14306;49.942;11.570;2022-07-29T05:37:33;97440.66;;;19.74;51.43
1371;BME280;14306;49.942;11.570;2022-07-29T05:43:15;97436.47;;;19.99;50.48
1371;BME280;14306;49.942;11.570;2022-07-29T05:45:44;97435.00;;;19.86;50.02
1371;BME280;14306;49.942;11.570;2022-07-29T05:48:15;97437.84;;;19.90;49.89
1371;BME280;14306;49.942;11.570;2022-07-29T05:50:44;97443.78;;;19.73;50.57
1371;BME280;14306;49.942;11.570;2022-07-29T05:53:12;97444.63;;;19.58;51.44
1371;BME280;14306;49.942;11.570;2022-07-29T05:55:47;97441.09;;;20.82;50.39
1371;BME280;14306;49.942;11.570;2022-07-29T05:58:15;97431.47;;;23.47;44.20
1371;BME280;14306;49.942;11.570;2022-07-29T06:00:44;97430.88;;;26.06;39.56
1371;BME280;14306;49.942;11.570;2022-07-29T06:03:12;97435.44;;;26.99;36.57
1371;BME280;14306;49.942;11.570;2022-07-29T06:05:41;97435.72;;;26.60;36.83
1371;BME280;14306;49.942;11.570;2022-07-29T06:08:09;97429.84;;;27.46;35.75
1371;BME280;14306;49.942;11.570;2022-07-29T06:10:37;97429.59;;;28.87;33.10
1371;BME280;14306;49.942;11.570;2022-07-29T06:13:08;97433.28;;;29.93;31.43
1371;BME280;14306;49.942;11.570;2022-07-29T06:15:36;97435.00;;;32.02;29.08
1371;BME280;14306;49.942;11.570;2022-07-29T06:18:04;97441.78;;;32.83;27.52
1371;BME280;14306;49.942;11.570;2022-07-29T06:20:37;97440.72;;;32.52;27.50
1371;BME280;14306;49.942;11.570;2022-07-29T06:23:05;97440.75;;;33.02;27.18
1371;BME280;14306;49.942;11.570;2022-07-29T06:25:34;97436.56;;;32.69;27.30
1371;BME280;14306;49.942;11.570;2022-07-29T06:28:03;97439.94;;;31.53;29.06
1371;BME280;14306;49.942;11.570;2022-07-29T06:30:33;97436.91;;;34.23;25.73
1371;BME280;14306;49.942;11.570;2022-07-29T06:33:01;97441.56;;;36.21;23.86
1371;BME280;14306;49.942;11.570;2022-07-29T06:35:32;97448.16;;;36.09;22.60
1371;BME280;14306;49.942;11.570;2022-07-29T06:38:07;97440.94;;;36.35;22.35
1371;BME280;14306;49.942;11.570;2022-07-29T06:40:56;97438.94;;;38.27;20.23
1371;BME280;14306;49.942;11.570;2022-07-29T06:43:29;97441.63;;;37.69;19.93
1371;BME280;14306;49.942;11.570;2022-07-29T06:46:01;97448.47;;;36.88;19.98
1371;BME280;14306;49.942;11.570;2022-07-29T06:48:30;97452.25;;;36.26;21.46
1371;BME280;14306;49.942;11.570;2022-07-29T06:50:59;97445.66;;;36.11;21.88
1371;BME280;14306;49.942;11.570;2022-07-29T06:53:27;97447.44;;;37.09;20.79
1371;BME280;14306;49.942;11.570;2022-07-29T06:55:56;97451.53;;;39.48;18.89
1371;BME280;14306;49.942;11.570;2022-07-29T06:58:24;97450.97;;;40.49;17.52
1371;BME280;14306;49.942;11.570;2022-07-29T07:00:53;97454.59;;;36.96;20.59
1371;BME280;14306;49.942;11.570;2022-07-29T07:03:24;97460.50;;;36.56;20.68
1371;BME280;14306;49.942;11.570;2022-07-29T07:05:53;97462.94;;;35.28;22.42
1371;BME280;14306;49.942;11.570;2022-07-29T07:08:21;97464.81;;;36.84;21.36
1371;BME280;14306;49.942;11.570;2022-07-29T07:10:50;97473.28;;;35.31;22.55
1371;BME280;14306;49.942;11.570;2022-07-29T07:13:18;97463.41;;;34.87;23.02
1371;BME280;14306;49.942;11.570;2022-07-29T07:15:47;97462.66;;;33.79;23.87
1371;BME280;14306;49.942;11.570;2022-07-29T07:18:17;97462.53;;;32.61;25.24
1371;BME280;14306;49.942;11.570;2022-07-29T07:20:53;97460.00;;;31.96;26.06
1371;BME280;14306;49.942;11.570;2022-07-29T07:23:22;97460.31;;;31.98;26.57
1371;BME280;14306;49.942;11.570;2022-07-29T07:25:51;97460.41;;;32.23;26.01
1371;BME280;14306;49.942;11.570;2022-07-29T07:28:19;97463.72;;;32.06;26.71
1371;BME280;14306;49.942;11.570;2022-07-29T07:30:52;97464.53;;;31.46;27.48
1371;BME280;14306;49.942;11.570;2022-07-29T07:33:23;97461.84;;;33.32;25.53
1371;BME280;14306;49.942;11.570;2022-07-29T07:35:54;97461.34;;;35.94;22.64
1371;BME280;14306;49.942;11.570;2022-07-29T07:38:23;97461.53;;;38.50;19.97
1371;BME280;14306;49.942;11.570;2022-07-29T07:40:52;97455.25;;;38.90;19.44
1371;BME280;14306;49.942;11.570;2022-07-29T07:43:20;97465.72;;;38.55;19.90
1371;BME280;14306;49.942;11.570;2022-07-29T07:45:48;97459.81;;;38.29;20.50
1371;BME280;14306;49.942;11.570;2022-07-29T07:48:16;97462.84;;;38.11;20.31
1371;BME280;14306;49.942;11.570;2022-07-29T07:50:45;97451.47;;;36.85;21.81
1371;BME280;14306;49.942;11.570;2022-07-29T07:53:17;97456.47;;;35.76;23.10
1371;BME280;14306;49.942;11.570;2022-07-29T07:55:45;97456.03;;;35.96;22.72
1371;BME280;14306;49.942;11.570;2022-07-29T07:58:33;97455.22;;;35.77;22.59
1371;BME280;14306;49.942;11.570;2022-07-29T08:01:03;97458.72;;;34.93;24.00
1371;BME280;14306;49.942;11.570;2022-07-29T08:03:31;97454.44;;;35.19;23.19
1371;BME280;14306;49.942;11.570;2022-07-29T08:06:00;97454.91;;;35.84;22.52
1371;BME280;14306;49.942;11.570;2022-07-29T08:08:34;97454.34;;;36.76;21.40
1371;BME280;14306;49.942;11.570;2022-07-29T08:11:06;97447.84;;;36.25;22.48
1371;BME280;14306;49.942;11.570;2022-07-29T08:13:36;97446.66;;;37.41;21.72
1371;BME280;14306;49.942;11.570;2022-07-29T08:16:05;97445.63;;;37.53;21.45
1371;BME280;14306;49.942;11.570;2022-07-29T08:18:40;97447.63;;;39.11;19.89
1371;BME280;14306;49.942;11.570;2022-07-29T08:21:09;97456.13;;;39.80;18.84
1371;BME280;14306;49.942;11.570;2022-07-29T08:23:43;97452.25;;;38.64;19.90
1371;BME280;14306;49.942;11.570;2022-07-29T08:26:27;97444.25;;;38.63;19.91
1371;BME280;14306;49.942;11.570;2022-07-29T08:28:55;97445.16;;;37.31;21.53
1371;BME280;14306;49.942;11.570;2022-07-29T08:31:23;97435.88;;;37.78;21.05
1371;BME280;14306;49.942;11.570;2022-07-29T08:33:53;97446.97;;;37.67;21.27
1371;BME280;14306;49.942;11.570;2022-07-29T08:36:29;97453.91;;;38.56;20.95
1371;BME280;14306;49.942;11.570;2022-07-29T08:38:59;97448.13;;;38.95;20.41
1371;BME280;14306;49.942;11.570;2022-07-29T08:41:28;97446.78;;;39.59;20.03
1371;BME280;14306;49.942;11.570;2022-07-29T08:43:57;97446.53;;;39.77;19.65
1371;BME280;14306;49.942;11.570;2022-07-29T08:46:28;97444.56;;;41.11;18.58
1371;BME280;14306;49.942;11.570;2022-07-29T08:49:02;97452.13;;;39.92;19.10
1371;BME280;14306;49.942;11.570;2022-07-29T08:51:35;97459.63;;;39.55;19.92
1371;BME280;14306;49.942;11.570;2022-07-29T08:54:18;97446.50;;;36.80;22.94
1371;BME280;14306;49.942;11.570;2022-07-29T08:56:49;97443.00;;;34.43;25.80
1371;BME280;14306;49.942;11.570;2022-07-29T08:59:22;97440.41;;;37.37;22.46
1371;BME280;14306;49.942;11.570;2022-07-29T09:01:51;97443.31;;;37.52;22.44
1371;BME280;14306;49.942;11.570;2022-07-29T09:04:21;97443.88;;;37.79;21.43
1371;BME280;14306;49.942;11.570;2022-07-29T09:06:54;97452.25;;;36.26;23.40
1371;BME280;14306;49.942;11.570;2022-07-29T09:09:25;97450.78;;;34.39;26.16
1371;BME280;14306;49.942;11.570;2022-07-29T09:11:53;97434.19;;;36.14;23.38
1371;BME280;14306;49.942;11.570;2022-07-29T09:14:23;97434.44;;;38.93;21.24
1371;BME280;14306;49.942;11.570;2022-07-29T09:16:53;97437.59;;;40.10;19.66
1371;BME280;14306;49.942;11.570;2022-07-29T09:19:24;97435.44;;;38.61;21.22
1371;BME280;14306;49.942;11.570;2022-07-29T09:21:54;97436.13;;;37.09;22.31
1371;BME280;14306;49.942;11.570;2022-07-29T09:24:35;97427.72;;;36.41;23.86
1371;BME280;14306;49.942;11.570;2022-07-29T09:27:17;97433.13;;;35.09;24.81
1371;BME280;14306;49.942;11.570;2022-07-29T09:29:47;97428.97;;;34.31;25.62
1371;BME280;14306;49.942;11.570;2022-07-29T09:32:22;97420.84;;;34.54;26.27
1371;BME280;14306;49.942;11.570;2022-07-29T09:34:51;97414.47;;;35.02;25.48
1371;BME280;14306;49.942;11.570;2022-07-29T09:37:27;97411.91;;;32.89;27.90
1371;BME280;14306;49.942;11.570;2022-07-29T09:39:57;97407.94;;;32.36;28.94
1371;BME280;14306;49.942;11.570;2022-07-29T09:42:29;97404.97;;;33.40;27.69
1371;BME280;14306;49.942;11.570;2022-07-29T09:45:00;97398.38;;;34.33;26.65
1371;BME280;14306;49.942;11.570;2022-07-29T09:47:43;97405.38;;;35.56;25.26
1371;BME280;14306;49.942;11.570;2022-07-29T09:50:15;97394.41;;;34.52;26.16
1371;BME280;14306;49.942;11.570;2022-07-29T09:52:47;97407.44;;;33.38;27.77
1371;BME280;14306;49.942;11.570;2022-07-29T09:55:18;97397.53;;;33.46;28.11
1371;BME280;14306;49.942;11.570;2022-07-29T09:57:46;97400.25;;;35.15;26.28
1371;BME280;14306;49.942;11.570;2022-07-29T10:00:17;97389.72;;;35.55;24.86
1371;BME280;14306;49.942;11.570;2022-07-29T10:02:47;97394.97;;;33.39;27.95
1371;BME280;14306;49.942;11.570;2022-07-29T10:05:20;97403.16;;;34.54;26.83
1371;BME280;14306;49.942;11.570;2022-07-29T10:07:50;97392.16;;;34.77;26.58
1371;BME280;14306;49.942;11.570;2022-07-29T10:10:23;97383.81;;;34.13;27.48
1371;BME280;14306;49.942;11.570;2022-07-29T10:12:54;97393.94;;;34.53;26.97
1371;BME280;14306;49.942;11.570;2022-07-29T10:15:27;97384.47;;;34.17;27.21
1371;BME280;14306;49.942;11.570;2022-07-29T10:17:56;97383.31;;;33.62;28.30
1371;BME280;14306;49.942;11.570;2022-07-29T10:20:26;97387.94;;;33.56;28.43
1371;BME280;14306;49.942;11.570;2022-07-29T10:22:56;97383.97;;;34.09;27.52
1371;BME280;14306;49.942;11.570;2022-07-29T10:25:26;97385.38;;;33.49;28.33
1371;BME280;14306;49.942;11.570;2022-07-29T10:27:55;97389.09;;;31.39;31.33
1371;BME280;14306;49.942;11.570;2022-07-29T10:30:25;97381.69;;;32.68;29.75
1371;BME280;14306;49.942;11.570;2022-07-29T10:33:28;97384.50;;;31.00;31.62
1371;BME280;14306;49.942;11.570;2022-07-29T10:36:38;97364.31;;;32.61;29.87
1371;BME280;14306;49.942;11.570;2022-07-29T10:39:18;97365.06;;;35.19;27.13
1371;BME280;14306;49.942;11.570;2022-07-29T10:41:59;97357.53;;;37.98;23.46
1371;BME280;14306;49.942;11.570;2022-07-29T10:44:30;97354.47;;;39.64;21.29
1371;BME280;14306;49.942;11.570;2022-07-29T10:47:00;97359.88;;;35.09;26.47
1371;BME280;14306;49.942;11.570;2022-07-29T10:49:28;97353.97;;;35.61;25.75
1371;BME280;14306;49.942;11.570;2022-07-29T10:52:00;97357.28;;;34.14;27.75
1371;BME280;14306;49.942;11.570;2022-07-29T10:54:45;97339.97;;;36.62;25.57
1371;BME280;14306;49.942;11.570;2022-07-29T10:57:19;97350.97;;;38.80;22.19
1371;BME280;14306;49.942;11.570;2022-07-29T11:00:29;97365.69;;;35.14;26.13
1371;BME280;14306;49.942;11.570;2022-07-29T11:02:58;97356.06;;;34.85;26.26
1371;BME280;14306;49.942;11.570;2022-07-29T11:05:52;97358.34;;;35.71;25.40
1371;BME280;14306;49.942;11.570;2022-07-29T11:08:23;97349.97;;;36.31;25.05
1371;BME280;14306;49.942;11.570;2022-07-29T11:14:18;97361.56;;;36.33;25.48
1371;BME280;14306;49.942;11.570;2022-07-29T11:17:06;97360.97;;;37.88;23.62
1371;BME280;14306;49.942;11.570;2022-07-29T11:19:39;97368.84;;;37.69;23.43
1371;BME280;14306;49.942;11.570;2022-07-29T11:22:31;97373.97;;;36.77;24.52
1371;BME280;14306;49.942;11.570;2022-07-29T11:25:14;97358.34;;;37.23;24.06
1371;BME280;14306;49.942;11.570;2022-07-29T11:27:44;97346.72;;;37.21;24.08
1371;BME280;14306;49.942;11.570;2022-07-29T11:30:15;97353.31;;;36.94;23.91
1371;BME280;14306;49.942;11.570;2022-07-29T11:32:44;97348.09;;;37.25;23.78
1371;BME280;14306;49.942;11.570;2022-07-29T11:35:16;97341.06;;;39.24;21.61
1371;BME280;14306;49.942;11.570;2022-07-29T11:38:24;97339.28;;;37.47;23.01
1371;BME280;14306;49.942;11.570;2022-07-29T11:43:59;97332.06;;;37.98;23.30
1371;BME280;14306;49.942;11.570;2022-07-29T11:46:46;97328.44;;;38.41;22.18
1371;BME280;14306;49.942;11.570;2022-07-29T11:49:19;97332.41;;;38.79;22.33
1371;BME280;14306;49.942;11.570;2022-07-29T11:51:59;97320.06;;;37.74;23.30
1371;BME280;14306;49.942;11.570;2022-07-29T11:54:31;97315.16;;;37.60;23.40
1371;BME280;14306;49.942;11.570;2022-07-29T11:57:20;97318.38;;;37.30;23.37
1371;BME280;14306;49.942;11.570;2022-07-29T12:00:04;97305.53;;;37.81;23.05
1371;BME280;14306;49.942;11.570;2022-07-29T12:02:42;97319.41;;;36.29;24.34
1371;BME280;14306;49.942;11.570;2022-07-29T12:05:14;97312.28;;;35.20;26.39
1371;BME280;14306;49.942;11.570;2022-07-29T12:08:06;97305.50;;;35.99;25.40
1371;BME280;14306;49.942;11.570;2022-07-29T12:10:41;97309.19;;;36.64;24.61
1371;BME280;14306;49.942;11.570;2022-07-29T12:13:10;97304.41;;;36.47;25.00
1371;BME280;14306;49.942;11.570;2022-07-29T12:15:38;97317.88;;;33.83;27.74
1371;BME280;14306;49.942;11.570;2022-07-29T12:18:14;97316.28;;;34.04;27.37
1371;BME280;14306;49.942;11.570;2022-07-29T12:20:45;97313.81;;;34.45;27.20
1371;BME280;14306;49.942;11.570;2022-07-29T12:23:14;97309.69;;;34.68;26.73
1371;BME280;14306;49.942;11.570;2022-07-29T12:25:44;97316.88;;;33.77;28.13
1371;BME280;14306;49.942;11.570;2022-07-29T12:28:15;97323.03;;;31.82;32.65
1371;BME280;14306;49.942;11.570;2022-07-29T12:30:53;97334.47;;;30.38;35.94
1371;BME280;14306;49.942;11.570;2022-07-29T12:33:23;97334.41;;;29.48;38.62
1371;BME280;14306;49.942;11.570;2022-07-29T12:35:54;97332.50;;;29.02;40.16
1371;BME280;14306;49.942;11.570;2022-07-29T12:38:33;97338.78;;;27.10;44.86
1371;BME280;14306;49.942;11.570;2022-07-29T12:41:02;97344.00;;;26.57;46.46
1371;BME280;14306;49.942;11.570;2022-07-29T12:43:31;97347.53;;;26.10;48.07
1371;BME280;14306;49.942;11.570;2022-07-29T12:46:11;97362.66;;;25.98;49.97
1371;BME280;14306;49.942;11.570;2022-07-29T12:48:43;97362.88;;;25.52;54.12
1371;BME280;14306;49.942;11.570;2022-07-29T12:51:11;97385.13;;;25.17;56.37
1371;BME280;14306;49.942;11.570;2022-07-29T12:53:41;97390.63;;;24.02;67.84
1371;BME280;14306;49.942;11.570;2022-07-29T12:56:15;97407.16;;;22.22;81.16
1371;BME280;14306;49.942;11.570;2022-07-29T12:59:12;97417.47;;;20.81;90.00
1371;BME280;14306;49.942;11.570;2022-07-29T13:01:40;97435.78;;;20.25;93.58
1371;BME280;14306;49.942;11.570;2022-07-29T13:04:10;97441.22;;;19.10;96.32
1371;BME280;14306;49.942;11.570;2022-07-29T13:06:40;97422.59;;;18.85;100.00
1371;BME280;14306;49.942;11.570;2022-07-29T13:09:36;97366.97;;;28.12;75.42
1371;BME280;14306;49.942;11.570;2022-07-29T13:12:06;97419.19;;;34.35;nan
1371;BME280;14306;49.942;11.570;2022-07-29T13:14:37;97437.06;;;20.76;nan
1371;BME280;14306;49.942;11.570;2022-07-29T13:17:07;97438.34;;;20.37;nan
1371;BME280;14306;49.942;11.570;2022-07-29T13:19:38;97439.59;;;20.88;nan
1371;BME280;14306;49.942;11.570;2022-07-29T13:22:08;97442.63;;;21.57;nan
1371;BME280;14306;49.942;11.570;2022-07-29T13:24:51;97445.47;;;22.30;nan
1371;BME280;14306;49.942;11.570;2022-07-29T13:27:21;97444.34;;;22.75;nan
1371;BME280;14306;49.942;11.570;2022-07-29T13:29:50;97440.97;;;22.92;nan
1371;BME280;14306;49.942;11.570;2022-07-29T13:32:20;97439.16;;;21.93;nan
1371;BME280;14306;49.942;11.570;2022-07-29T13:34:55;97438.94;;;22.09;nan
1371;BME280;14306;49.942;11.570;2022-07-29T13:37:24;97431.53;;;22.16;nan